createdAt,value
2023-04-11T00:01:15.275Z,1002.18
2023-04-11T00:01:54.301Z,1002.31
2023-04-11T00:02:54.450Z,1002.29
2023-04-11T00:03:54.254Z,1002.35
2023-04-11T00:04:54.184Z,1002.38
2023-04-11T00:05:54.099Z,1002.39
2023-04-11T00:07:15.049Z,1002.39
2023-04-11T00:07:54.019Z,1002.43
2023-04-11T00:08:54.443Z,1002.34
2023-04-11T00:09:53.968Z,1002.28
2023-04-11T00:10:53.917Z,1002.24
2023-04-11T00:11:53.889Z,1002.29
2023-04-11T00:13:14.838Z,1002.22
2023-04-11T00:13:53.810Z,1002.22
2023-04-11T00:14:53.791Z,1002.27
2023-04-11T00:15:53.739Z,1002.24
2023-04-11T00:16:53.960Z,1002.22
2023-04-11T00:17:53.758Z,1002.15
2023-04-11T00:19:14.647Z,1002.19
2023-04-11T00:19:53.610Z,1002.17
2023-04-11T00:20:53.568Z,1002.13
2023-04-11T00:21:53.538Z,1002.19
2023-04-11T00:22:53.479Z,1002.18
2023-04-11T00:23:53.447Z,1002.15
2023-04-11T00:25:14.423Z,1002.12
2023-04-11T00:25:53.380Z,1002.15
2023-04-11T00:26:53.339Z,1002.20
2023-04-11T00:27:53.310Z,1002.17
2023-04-11T00:28:53.455Z,1002.18
2023-04-11T00:29:53.229Z,1002.23
2023-04-11T00:31:14.361Z,1002.30
2023-04-11T00:31:53.186Z,1002.25
2023-04-11T00:32:53.181Z,1002.30
2023-04-11T00:33:53.093Z,1002.30
2023-04-11T00:34:53.052Z,1002.30
2023-04-11T00:35:53.074Z,1002.32
2023-04-11T00:37:13.974Z,1002.29
2023-04-11T00:37:52.937Z,1002.33
2023-04-11T00:38:52.921Z,1002.32
2023-04-11T00:39:52.880Z,1002.36
2023-04-11T00:40:52.848Z,1002.41
2023-04-11T00:41:52.801Z,1002.38
2023-04-11T00:43:13.751Z,1002.42
2023-04-11T00:43:52.724Z,1002.36
2023-04-11T00:44:52.689Z,1002.35
2023-04-11T00:45:52.770Z,1002.33
2023-04-11T00:46:52.630Z,1002.31
2023-04-11T00:47:52.623Z,1002.29
2023-04-11T00:49:13.537Z,1002.25
2023-04-11T00:49:52.503Z,1002.28
2023-04-11T00:50:52.477Z,1002.25
2023-04-11T00:51:52.428Z,1002.22
2023-04-11T00:52:52.407Z,1002.23
2023-04-11T00:53:52.397Z,1002.23
2023-04-11T00:55:13.325Z,1002.26
2023-04-11T00:55:52.294Z,1002.20
2023-04-11T00:56:52.259Z,1002.19
2023-04-11T00:57:52.213Z,1002.18
2023-04-11T00:58:52.174Z,1002.17
2023-04-11T00:59:52.153Z,1002.15
2023-04-11T01:01:13.140Z,1002.13
2023-04-11T01:01:52.178Z,1002.14
2023-04-11T01:02:52.139Z,1002.11
2023-04-11T01:03:52.103Z,1002.04
2023-04-11T01:04:51.971Z,1002.02
2023-04-11T01:05:51.932Z,1002.07
2023-04-11T01:07:12.894Z,1002.06
2023-04-11T01:07:51.871Z,1002.01
2023-04-11T01:08:51.847Z,1002.03
2023-04-11T01:09:51.797Z,1001.89
2023-04-11T01:10:51.757Z,1001.90
2023-04-11T01:11:51.733Z,1001.92
2023-04-11T01:13:12.678Z,1001.88
2023-04-11T01:13:51.642Z,1001.93
2023-04-11T01:14:51.613Z,1001.93
2023-04-11T01:15:51.577Z,1001.93
2023-04-11T01:16:51.573Z,1001.92
2023-04-11T01:17:51.535Z,1001.87
2023-04-11T01:19:12.471Z,1001.98
2023-04-11T01:19:51.434Z,1001.94
2023-04-11T01:20:51.434Z,1001.95
2023-04-11T01:21:51.368Z,1001.99
2023-04-11T01:22:51.338Z,1002.04
2023-04-11T01:23:51.289Z,1002.03
2023-04-11T01:25:12.258Z,1002.06
2023-04-11T01:25:51.218Z,1002.11
2023-04-11T01:26:51.179Z,1002.03
2023-04-11T01:27:51.160Z,1002.12
2023-04-11T01:28:51.125Z,1002.15
2023-04-11T01:29:51.074Z,1002.18
2023-04-11T01:31:12.092Z,1002.18
2023-04-11T01:31:51.010Z,1002.11
2023-04-11T01:32:50.986Z,1002.16
2023-04-11T01:33:50.936Z,1002.04
2023-04-11T01:34:50.890Z,1002.06
2023-04-11T01:35:50.871Z,1002.13
2023-04-11T01:37:11.820Z,1002.09
2023-04-11T01:37:50.788Z,1002.02
2023-04-11T01:38:50.751Z,1002.08
2023-04-11T01:39:50.711Z,1002.05
2023-04-11T01:40:50.684Z,1002.07
2023-04-11T01:41:50.661Z,1002.00
2023-04-11T01:43:11.604Z,1001.96
2023-04-11T01:43:50.569Z,1001.99
2023-04-11T01:44:50.533Z,1002.09
2023-04-11T01:45:50.499Z,1002.08
2023-04-11T01:46:50.460Z,1002.09
2023-04-11T01:47:51.069Z,1002.12
2023-04-11T01:49:11.447Z,1002.24
2023-04-11T01:49:50.353Z,1002.30
2023-04-11T01:50:50.314Z,1002.25
2023-04-11T01:51:50.278Z,1002.27
2023-04-11T01:52:50.242Z,1002.26
2023-04-11T01:53:50.211Z,1002.32
2023-04-11T01:55:11.157Z,1002.36
2023-04-11T01:55:50.128Z,1002.25
2023-04-11T01:56:50.093Z,1002.29
2023-04-11T01:57:50.063Z,1002.29
2023-04-11T01:58:50.017Z,1002.29
2023-04-11T01:59:49.989Z,1002.30
2023-04-11T02:01:10.999Z,1002.26
2023-04-11T02:01:50.010Z,1002.27
2023-04-11T02:02:49.911Z,1002.19
2023-04-11T02:03:49.912Z,1002.30
2023-04-11T02:04:49.805Z,1002.17
2023-04-11T02:05:49.758Z,1002.31
2023-04-11T02:07:10.733Z,1002.22
2023-04-11T02:07:49.699Z,1002.32
2023-04-11T02:08:49.649Z,1002.29
2023-04-11T02:09:49.618Z,1002.33
2023-04-11T02:10:49.588Z,1002.28
2023-04-11T02:11:49.555Z,1002.34
2023-04-11T02:13:10.507Z,1002.31
2023-04-11T02:13:49.475Z,1002.37
2023-04-11T02:14:49.445Z,1002.32
2023-04-11T02:15:49.425Z,1002.29
2023-04-11T02:16:49.380Z,1002.36
2023-04-11T02:17:49.341Z,1002.27
2023-04-11T02:19:10.307Z,1002.33
2023-04-11T02:19:49.265Z,1002.29
2023-04-11T02:20:49.219Z,1002.34
2023-04-11T02:21:49.202Z,1002.35
2023-04-11T02:22:49.153Z,1002.32
2023-04-11T02:23:49.116Z,1002.34
2023-04-11T02:25:10.066Z,1002.40
2023-04-11T02:25:49.035Z,1002.37
2023-04-11T02:26:49.004Z,1002.40
2023-04-11T02:27:48.971Z,1002.38
2023-04-11T02:28:48.933Z,1002.39
2023-04-11T02:29:48.913Z,1002.44
2023-04-11T02:31:09.991Z,1002.41
2023-04-11T02:31:48.903Z,1002.36
2023-04-11T02:32:48.860Z,1002.33
2023-04-11T02:33:48.748Z,1002.41
2023-04-11T02:34:48.710Z,1002.38
2023-04-11T02:35:48.783Z,1002.39
2023-04-11T02:37:09.645Z,1002.41
2023-04-11T02:37:48.613Z,1002.37
2023-04-11T02:38:48.570Z,1002.44
2023-04-11T02:39:48.535Z,1002.45
2023-04-11T02:40:48.497Z,1002.46
2023-04-11T02:41:48.460Z,1002.50
2023-04-11T02:43:09.424Z,1002.53
2023-04-11T02:43:48.389Z,1002.61
2023-04-11T02:44:48.353Z,1002.54
2023-04-11T02:45:48.409Z,1002.52
2023-04-11T02:46:48.372Z,1002.55
2023-04-11T02:47:48.372Z,1002.68
2023-04-11T02:49:09.210Z,1002.71
2023-04-11T02:49:48.172Z,1002.72
2023-04-11T02:50:48.147Z,1002.65
2023-04-11T02:51:48.108Z,1002.69
2023-04-11T02:52:48.088Z,1002.67
2023-04-11T02:53:48.021Z,1002.62
2023-04-11T02:55:08.994Z,1002.66
2023-04-11T02:55:47.956Z,1002.62
2023-04-11T02:56:47.914Z,1002.69
2023-04-11T02:57:47.894Z,1002.61
2023-04-11T02:58:47.839Z,1002.60
2023-04-11T02:59:47.818Z,1002.67
2023-04-11T03:01:08.771Z,1002.69
2023-04-11T03:01:47.844Z,1002.68
2023-04-11T03:02:47.739Z,1002.68
2023-04-11T03:03:47.705Z,1002.61
2023-04-11T03:04:47.688Z,1002.70
2023-04-11T03:05:47.602Z,1002.70
2023-04-11T03:07:08.549Z,1002.70
2023-04-11T03:07:47.513Z,1002.65
2023-04-11T03:08:47.479Z,1002.71
2023-04-11T03:09:47.446Z,1002.68
2023-04-11T03:10:47.410Z,1002.68
2023-04-11T03:11:47.514Z,1002.65
2023-04-11T03:13:08.334Z,1002.62
2023-04-11T03:13:47.302Z,1002.66
2023-04-11T03:14:47.269Z,1002.68
2023-04-11T03:15:47.250Z,1002.73
2023-04-11T03:16:47.178Z,1002.63
2023-04-11T03:17:47.198Z,1002.67
2023-04-11T03:19:08.105Z,1002.65
2023-04-11T03:19:47.083Z,1002.64
2023-04-11T03:20:47.043Z,1002.62
2023-04-11T03:21:47.007Z,1002.64
2023-04-11T03:22:46.971Z,1002.68
2023-04-11T03:23:46.936Z,1002.62
2023-04-11T03:25:07.893Z,1002.68
2023-04-11T03:25:46.871Z,1002.67
2023-04-11T03:26:46.847Z,1002.61
2023-04-11T03:27:46.826Z,1002.62
2023-04-11T03:28:46.768Z,1002.67
2023-04-11T03:29:46.706Z,1002.66
2023-04-11T03:31:07.736Z,1002.69
2023-04-11T03:31:46.778Z,1002.70
2023-04-11T03:32:46.628Z,1002.71
2023-04-11T03:33:46.572Z,1002.68
2023-04-11T03:34:46.534Z,1002.68
2023-04-11T03:35:46.531Z,1002.73
2023-04-11T03:37:07.457Z,1002.71
2023-04-11T03:37:46.426Z,1002.68
2023-04-11T03:38:46.386Z,1002.73
2023-04-11T03:39:46.370Z,1002.72
2023-04-11T03:40:46.309Z,1002.76
2023-04-11T03:41:46.280Z,1002.81
2023-04-11T03:43:07.233Z,1002.84
2023-04-11T03:43:46.197Z,1002.76
2023-04-11T03:44:46.166Z,1002.79
2023-04-11T03:45:46.125Z,1002.78
2023-04-11T03:46:46.157Z,1002.92
2023-04-11T03:47:46.098Z,1002.87
2023-04-11T03:49:07.007Z,1002.93
2023-04-11T03:49:45.985Z,1002.93
2023-04-11T03:50:45.942Z,1002.91
2023-04-11T03:51:45.901Z,1002.92
2023-04-11T03:52:45.868Z,1002.97
2023-04-11T03:53:45.831Z,1002.93
2023-04-11T03:55:06.784Z,1002.98
2023-04-11T03:55:45.770Z,1002.94
2023-04-11T03:56:45.726Z,1003.06
2023-04-11T03:57:45.680Z,1003.02
2023-04-11T03:58:45.644Z,1003.08
2023-04-11T03:59:45.603Z,1003.19
2023-04-11T04:01:06.573Z,1003.06
2023-04-11T04:01:45.599Z,1003.06
2023-04-11T04:02:45.605Z,1003.13
2023-04-11T04:03:45.796Z,1003.13
2023-04-11T04:04:45.487Z,1003.10
2023-04-11T04:05:45.388Z,1003.18
2023-04-11T04:07:06.347Z,1003.08
2023-04-11T04:07:45.309Z,1003.09
2023-04-11T04:08:45.268Z,1003.05
2023-04-11T04:09:45.242Z,1003.07
2023-04-11T04:10:45.211Z,1003.04
2023-04-11T04:11:45.167Z,1003.08
2023-04-11T04:13:06.131Z,1003.07
2023-04-11T04:13:45.091Z,1003.01
2023-04-11T04:14:45.050Z,1003.03
2023-04-11T04:15:45.034Z,1003.04
2023-04-11T04:16:45.020Z,1003.03
2023-04-11T04:17:44.952Z,1003.01
2023-04-11T04:19:05.904Z,1003.05
2023-04-11T04:19:44.876Z,1003.03
2023-04-11T04:20:44.832Z,1003.06
2023-04-11T04:21:44.804Z,1003.04
2023-04-11T04:22:44.755Z,1003.04
2023-04-11T04:23:44.735Z,1003.04
2023-04-11T04:25:05.680Z,1003.00
2023-04-11T04:25:44.651Z,1003.05
2023-04-11T04:26:44.610Z,1003.08
2023-04-11T04:27:44.630Z,1003.01
2023-04-11T04:28:44.537Z,1003.08
2023-04-11T04:29:44.505Z,1003.11
2023-04-11T04:31:05.482Z,1003.03
2023-04-11T04:31:44.510Z,1003.18
2023-04-11T04:32:44.420Z,1003.17
2023-04-11T04:33:44.371Z,1003.07
2023-04-11T04:34:44.310Z,1003.11
2023-04-11T04:35:44.312Z,1003.14
2023-04-11T04:37:05.250Z,1003.22
2023-04-11T04:37:44.215Z,1003.19
2023-04-11T04:38:44.162Z,1003.22
2023-04-11T04:39:44.140Z,1003.19
2023-04-11T04:40:44.099Z,1003.27
2023-04-11T04:41:44.062Z,1003.21
2023-04-11T04:43:05.043Z,1003.30
2023-04-11T04:43:43.993Z,1003.27
2023-04-11T04:44:43.950Z,1003.31
2023-04-11T04:45:43.977Z,1003.32
2023-04-11T04:46:43.881Z,1003.30
2023-04-11T04:47:43.875Z,1003.31
2023-04-11T04:49:04.795Z,1003.34
2023-04-11T04:49:43.789Z,1003.44
2023-04-11T04:50:43.737Z,1003.31
2023-04-11T04:51:43.697Z,1003.33
2023-04-11T04:52:43.675Z,1003.38
2023-04-11T04:53:43.614Z,1003.45
2023-04-11T04:55:04.569Z,1003.33
2023-04-11T04:55:43.538Z,1003.39
2023-04-11T04:56:43.508Z,1003.33
2023-04-11T04:57:43.479Z,1003.44
2023-04-11T04:58:43.446Z,1003.38
2023-04-11T04:59:43.398Z,1003.39
2023-04-11T05:01:04.404Z,1003.43
2023-04-11T05:01:43.445Z,1003.42
2023-04-11T05:02:43.390Z,1003.43
2023-04-11T05:03:43.393Z,1003.44
2023-04-11T05:04:43.216Z,1003.45
2023-04-11T05:05:43.177Z,1003.48
2023-04-11T05:07:04.136Z,1003.47
2023-04-11T05:07:43.144Z,1003.50
2023-04-11T05:08:43.058Z,1003.45
2023-04-11T05:09:43.040Z,1003.49
2023-04-11T05:10:42.991Z,1003.52
2023-04-11T05:11:42.959Z,1003.53
2023-04-11T05:13:03.922Z,1003.54
2023-04-11T05:13:42.885Z,1003.57
2023-04-11T05:14:42.856Z,1003.54
2023-04-11T05:15:42.803Z,1003.53
2023-04-11T05:16:42.797Z,1003.59
2023-04-11T05:17:42.843Z,1003.59
2023-04-11T05:19:03.698Z,1003.64
2023-04-11T05:19:42.670Z,1003.57
2023-04-11T05:20:42.640Z,1003.62
2023-04-11T05:21:42.581Z,1003.63
2023-04-11T05:22:42.544Z,1003.62
2023-04-11T05:23:42.517Z,1003.62
2023-04-11T05:25:03.477Z,1003.66
2023-04-11T05:25:42.443Z,1003.59
2023-04-11T05:26:42.400Z,1003.64
2023-04-11T05:27:42.369Z,1003.76
2023-04-11T05:28:42.332Z,1003.58
2023-04-11T05:29:42.294Z,1003.67
2023-04-11T05:31:03.330Z,1003.62
2023-04-11T05:31:42.211Z,1003.69
2023-04-11T05:32:42.206Z,1003.73
2023-04-11T05:33:42.256Z,1003.78
2023-04-11T05:34:42.098Z,1003.71
2023-04-11T05:35:42.097Z,1003.71
2023-04-11T05:37:03.017Z,1003.75
2023-04-11T05:37:41.985Z,1003.80
2023-04-11T05:38:41.963Z,1003.85
2023-04-11T05:39:41.911Z,1003.78
2023-04-11T05:40:41.874Z,1003.81
2023-04-11T05:41:41.842Z,1003.89
2023-04-11T05:43:02.819Z,1003.96
2023-04-11T05:43:41.767Z,1003.89
2023-04-11T05:44:41.740Z,1003.91
2023-04-11T05:45:41.722Z,1003.95
2023-04-11T05:46:41.660Z,1003.94
2023-04-11T05:47:41.671Z,1003.97
2023-04-11T05:49:02.574Z,1003.98
2023-04-11T05:49:41.548Z,1004.06
2023-04-11T05:50:41.508Z,1004.00
2023-04-11T05:51:41.489Z,1003.98
2023-04-11T05:52:41.444Z,1004.03
2023-04-11T05:53:41.410Z,1004.06
2023-04-11T05:55:02.365Z,1004.19
2023-04-11T05:55:41.321Z,1004.14
2023-04-11T05:56:41.287Z,1004.19
2023-04-11T05:57:41.248Z,1004.20
2023-04-11T05:58:41.219Z,1004.27
2023-04-11T05:59:41.189Z,1004.22
2023-04-11T06:01:02.144Z,1004.23
2023-04-11T06:01:41.135Z,1004.18
2023-04-11T06:02:41.183Z,1004.23
2023-04-11T06:03:41.189Z,1004.28
2023-04-11T06:04:41.219Z,1004.30
2023-04-11T06:05:40.968Z,1004.27
2023-04-11T06:07:01.921Z,1004.26
2023-04-11T06:07:40.881Z,1004.33
2023-04-11T06:08:40.841Z,1004.34
2023-04-11T06:09:40.826Z,1004.32
2023-04-11T06:10:40.783Z,1004.30
2023-04-11T06:11:40.733Z,1004.32
2023-04-11T06:13:01.738Z,1004.34
2023-04-11T06:13:40.664Z,1004.33
2023-04-11T06:14:40.868Z,1004.31
2023-04-11T06:15:40.624Z,1004.38
2023-04-11T06:16:40.578Z,1004.36
2023-04-11T06:17:40.563Z,1004.36
2023-04-11T06:19:01.491Z,1004.36
2023-04-11T06:19:40.438Z,1004.38
2023-04-11T06:20:40.401Z,1004.43
2023-04-11T06:21:40.382Z,1004.43
2023-04-11T06:22:40.430Z,1004.42
2023-04-11T06:23:40.299Z,1004.43
2023-04-11T06:25:01.265Z,1004.59
2023-04-11T06:25:40.265Z,1004.48
2023-04-11T06:26:40.188Z,1004.50
2023-04-11T06:27:40.150Z,1004.65
2023-04-11T06:28:40.110Z,1004.57
2023-04-11T06:29:40.075Z,1004.56
2023-04-11T06:31:01.090Z,1004.47
2023-04-11T06:31:40.086Z,1004.61
2023-04-11T06:32:40.021Z,1004.53
2023-04-11T06:33:39.950Z,1004.59
2023-04-11T06:34:39.886Z,1004.53
2023-04-11T06:35:39.875Z,1004.56
2023-04-11T06:37:00.815Z,1004.61
2023-04-11T06:37:39.780Z,1004.59
2023-04-11T06:38:39.749Z,1004.61
2023-04-11T06:39:39.717Z,1004.63
2023-04-11T06:40:39.667Z,1004.67
2023-04-11T06:41:39.661Z,1004.66
2023-04-11T06:43:00.596Z,1004.70
2023-04-11T06:43:39.577Z,1004.66
2023-04-11T06:44:39.580Z,1004.68
2023-04-11T06:45:39.496Z,1004.73
2023-04-11T06:46:39.477Z,1004.74
2023-04-11T06:47:39.470Z,1004.73
2023-04-11T06:49:00.389Z,1004.74
2023-04-11T06:49:39.352Z,1004.72
2023-04-11T06:50:39.319Z,1004.69
2023-04-11T06:51:39.277Z,1004.67
2023-04-11T06:52:39.244Z,1004.70
2023-04-11T06:53:39.197Z,1004.69
2023-04-11T06:55:00.165Z,1004.80
2023-04-11T06:55:39.142Z,1004.72
2023-04-11T06:56:39.086Z,1004.78
2023-04-11T06:57:39.058Z,1004.81
2023-04-11T06:58:39.025Z,1004.74
2023-04-11T06:59:38.993Z,1004.76
2023-04-11T07:00:59.938Z,1004.83
2023-04-11T07:01:39.076Z,1004.83
2023-04-11T07:02:39.012Z,1004.83
2023-04-11T07:03:38.998Z,1004.79
2023-04-11T07:04:38.906Z,1004.76
2023-04-11T07:05:39.650Z,1004.76
2023-04-11T07:06:59.721Z,1004.79
2023-04-11T07:07:38.704Z,1004.78
2023-04-11T07:08:38.652Z,1004.74
2023-04-11T07:09:38.627Z,1004.75
2023-04-11T07:10:38.575Z,1004.82
2023-04-11T07:11:38.632Z,1004.87
2023-04-11T07:12:59.508Z,1004.85
2023-04-11T07:13:38.472Z,1004.92
2023-04-11T07:14:38.433Z,1004.93
2023-04-11T07:15:38.410Z,1004.93
2023-04-11T07:16:38.440Z,1004.91
2023-04-11T07:17:38.376Z,1004.97
2023-04-11T07:18:59.286Z,1004.96
2023-04-11T07:19:38.259Z,1004.96
2023-04-11T07:20:38.220Z,1004.95
2023-04-11T07:21:38.200Z,1005.03
2023-04-11T07:22:38.137Z,1005.08
2023-04-11T07:23:38.106Z,1004.97
2023-04-11T07:24:59.057Z,1005.02
2023-04-11T07:25:38.045Z,1005.00
2023-04-11T07:26:38.005Z,1005.10
2023-04-11T07:27:37.958Z,1005.05
2023-04-11T07:28:37.941Z,1004.96
2023-04-11T07:29:37.905Z,1005.03
2023-04-11T07:30:58.847Z,1005.08
2023-04-11T07:31:37.857Z,1005.11
2023-04-11T07:32:37.850Z,1005.11
2023-04-11T07:33:37.744Z,1005.15
2023-04-11T07:34:37.700Z,1005.10
2023-04-11T07:35:37.725Z,1005.13
2023-04-11T07:36:58.673Z,1005.17
2023-04-11T07:37:37.603Z,1005.15
2023-04-11T07:38:37.714Z,1005.20
2023-04-11T07:39:37.525Z,1005.12
2023-04-11T07:40:37.485Z,1005.12
2023-04-11T07:41:37.464Z,1005.13
2023-04-11T07:42:58.400Z,1005.20
2023-04-11T07:43:37.377Z,1005.21
2023-04-11T07:44:37.340Z,1005.18
2023-04-11T07:45:37.343Z,1005.19
2023-04-11T07:46:37.275Z,1005.34
2023-04-11T07:47:37.259Z,1005.29
2023-04-11T07:48:58.196Z,1005.31
2023-04-11T07:49:37.163Z,1005.31
2023-04-11T07:50:37.118Z,1005.26
2023-04-11T07:51:37.094Z,1005.31
2023-04-11T07:52:37.210Z,1005.30
2023-04-11T07:53:37.020Z,1005.21
2023-04-11T07:54:57.974Z,1005.25
2023-04-11T07:55:36.946Z,1005.34
2023-04-11T07:56:36.904Z,1005.26
2023-04-11T07:57:36.873Z,1005.27
2023-04-11T07:58:36.868Z,1005.23
2023-04-11T07:59:36.797Z,1005.28
2023-04-11T08:00:57.766Z,1005.33
2023-04-11T08:01:36.771Z,1005.34
2023-04-11T08:02:36.830Z,1005.34
2023-04-11T08:03:36.970Z,1005.34
2023-04-11T08:04:36.730Z,1005.29
2023-04-11T08:05:36.598Z,1005.40
2023-04-11T08:06:57.568Z,1005.39
2023-04-11T08:07:36.510Z,1005.46
2023-04-11T08:08:36.483Z,1005.63
2023-04-11T08:09:36.454Z,1005.51
2023-04-11T08:10:36.406Z,1005.46
2023-04-11T08:11:36.382Z,1005.52
2023-04-11T08:12:57.320Z,1005.46
2023-04-11T08:13:36.293Z,1005.41
2023-04-11T08:14:36.255Z,1005.52
2023-04-11T08:15:36.221Z,1005.47
2023-04-11T08:16:36.188Z,1005.60
2023-04-11T08:17:36.398Z,1005.48
2023-04-11T08:18:57.121Z,1005.48
2023-04-11T08:19:36.081Z,1005.54
2023-04-11T08:20:36.046Z,1005.61
2023-04-11T08:21:36.042Z,1005.50
2023-04-11T08:22:35.972Z,1005.48
2023-04-11T08:23:35.942Z,1005.55
2023-04-11T08:24:56.893Z,1005.52
2023-04-11T08:25:35.894Z,1005.67
2023-04-11T08:26:35.827Z,1005.63
2023-04-11T08:27:35.794Z,1005.60
2023-04-11T08:28:35.780Z,1005.69
2023-04-11T08:29:35.720Z,1005.83
2023-04-11T08:30:56.716Z,1005.67
2023-04-11T08:31:35.672Z,1005.70
2023-04-11T08:32:35.685Z,1005.74
2023-04-11T08:33:35.589Z,1005.64
2023-04-11T08:34:35.541Z,1005.65
2023-04-11T08:35:35.528Z,1005.65
2023-04-11T08:36:56.472Z,1005.62
2023-04-11T08:37:35.437Z,1005.65
2023-04-11T08:38:35.395Z,1005.74
2023-04-11T08:39:35.372Z,1005.70
2023-04-11T08:40:35.336Z,1005.72
2023-04-11T08:41:35.296Z,1005.69
2023-04-11T08:42:56.251Z,1005.74
2023-04-11T08:43:35.219Z,1005.82
2023-04-11T08:44:35.180Z,1005.72
2023-04-11T08:45:35.141Z,1005.76
2023-04-11T08:46:35.170Z,1005.72
2023-04-11T08:47:35.101Z,1005.73
2023-04-11T08:48:56.041Z,1005.74
2023-04-11T08:49:35.015Z,1005.67
2023-04-11T08:50:34.987Z,1005.73
2023-04-11T08:51:34.951Z,1005.71
2023-04-11T08:52:34.900Z,1005.81
2023-04-11T08:53:34.862Z,1005.67
2023-04-11T08:54:55.824Z,1005.73
2023-04-11T08:55:34.780Z,1005.66
2023-04-11T08:56:34.750Z,1005.64
2023-04-11T08:57:34.731Z,1005.65
2023-04-11T08:58:34.697Z,1005.68
2023-04-11T08:59:34.641Z,1005.72
2023-04-11T09:00:55.609Z,1005.74
2023-04-11T09:01:34.612Z,1005.73
2023-04-11T09:02:34.571Z,1005.73
2023-04-11T09:03:34.502Z,1005.73
2023-04-11T09:04:34.502Z,1005.75
2023-04-11T09:05:34.433Z,1005.69
2023-04-11T09:06:55.398Z,1005.72
2023-04-11T09:07:34.362Z,1005.76
2023-04-11T09:08:34.324Z,1005.78
2023-04-11T09:09:34.291Z,1005.83
2023-04-11T09:10:34.256Z,1005.77
2023-04-11T09:11:34.219Z,1005.80
2023-04-11T09:12:55.185Z,1005.80
2023-04-11T09:13:34.141Z,1005.79
2023-04-11T09:14:34.255Z,1005.83
2023-04-11T09:15:34.140Z,1005.90
2023-04-11T09:16:34.040Z,1005.85
2023-04-11T09:17:34.044Z,1005.97
2023-04-11T09:18:55.122Z,1005.76
2023-04-11T09:19:33.957Z,1005.85
2023-04-11T09:20:33.931Z,1005.88
2023-04-11T09:21:33.869Z,1005.86
2023-04-11T09:22:33.845Z,1005.89
2023-04-11T09:23:33.790Z,1005.77
2023-04-11T09:24:54.750Z,1005.79
2023-04-11T09:25:33.715Z,1005.80
2023-04-11T09:26:33.689Z,1005.74
2023-04-11T09:27:33.650Z,1005.78
2023-04-11T09:28:33.617Z,1005.75
2023-04-11T09:29:33.591Z,1005.72
2023-04-11T09:30:54.585Z,1005.68
2023-04-11T09:31:33.562Z,1005.76
2023-04-11T09:32:33.570Z,1005.75
2023-04-11T09:33:33.439Z,1005.78
2023-04-11T09:34:33.420Z,1005.77
2023-04-11T09:35:33.389Z,1005.76
2023-04-11T09:36:54.367Z,1005.83
2023-04-11T09:37:33.316Z,1005.79
2023-04-11T09:38:33.266Z,1005.79
2023-04-11T09:39:33.229Z,1005.88
2023-04-11T09:40:33.209Z,1005.84
2023-04-11T09:41:33.170Z,1005.99
2023-04-11T09:42:54.177Z,1005.84
2023-04-11T09:43:33.098Z,1005.83
2023-04-11T09:44:33.058Z,1005.84
2023-04-11T09:45:40.991Z,1005.83
2023-04-11T09:46:33.078Z,1005.88
2023-04-11T09:47:33.014Z,1005.86
2023-04-11T09:48:53.916Z,1005.94
2023-04-11T09:49:32.900Z,1005.88
2023-04-11T09:50:32.838Z,1005.87
2023-04-11T09:51:36.998Z,1005.83
2023-04-11T09:52:32.800Z,1005.90
2023-04-11T09:53:32.755Z,1006.03
2023-04-11T09:54:53.708Z,1005.91
2023-04-11T09:55:32.677Z,1005.96
2023-04-11T09:56:32.641Z,1005.92
2023-04-11T09:57:32.606Z,1006.00
2023-04-11T09:58:32.563Z,1006.02
2023-04-11T09:59:32.534Z,1006.07
2023-04-11T10:00:53.507Z,1006.26
2023-04-11T10:01:32.538Z,1006.10
2023-04-11T10:02:32.471Z,1006.06
2023-04-11T10:03:32.430Z,1006.20
2023-04-11T10:04:32.391Z,1006.25
2023-04-11T10:05:32.328Z,1006.12
2023-04-11T10:06:53.282Z,1006.23
2023-04-11T10:07:32.255Z,1006.10
2023-04-11T10:08:32.226Z,1006.17
2023-04-11T10:09:32.174Z,1006.16
2023-04-11T10:10:32.148Z,1006.07
2023-04-11T10:11:32.110Z,1006.02
2023-04-11T10:12:53.078Z,1006.08
2023-04-11T10:13:32.036Z,1006.10
2023-04-11T10:14:32.007Z,1006.06
2023-04-11T10:15:31.978Z,1006.18
2023-04-11T10:16:31.946Z,1006.07
2023-04-11T10:17:31.900Z,1006.18
2023-04-11T10:18:52.885Z,1006.10
2023-04-11T10:19:31.827Z,1006.24
2023-04-11T10:20:31.805Z,1006.13
2023-04-11T10:21:31.759Z,1006.08
2023-04-11T10:22:31.733Z,1006.04
2023-04-11T10:23:31.698Z,1006.18
2023-04-11T10:24:52.656Z,1006.00
2023-04-11T10:25:31.632Z,1006.05
2023-04-11T10:26:31.588Z,1006.08
2023-04-11T10:27:31.545Z,1006.09
2023-04-11T10:28:31.513Z,1006.10
2023-04-11T10:29:31.500Z,1006.09
2023-04-11T10:30:52.442Z,1006.16
2023-04-11T10:31:31.478Z,1006.11
2023-04-11T10:32:31.424Z,1006.05
2023-04-11T10:33:31.339Z,1006.11
2023-04-11T10:34:31.319Z,1006.06
2023-04-11T10:35:31.281Z,1006.17
2023-04-11T10:36:52.238Z,1006.01
2023-04-11T10:37:31.204Z,1006.01
2023-04-11T10:38:31.172Z,1006.04
2023-04-11T10:39:31.143Z,1006.09
2023-04-11T10:40:31.102Z,1006.00
2023-04-11T10:41:31.063Z,1006.02
2023-04-11T10:42:52.028Z,1006.05
2023-04-11T10:43:31.008Z,1006.03
2023-04-11T10:44:30.958Z,1006.05
2023-04-11T10:45:30.930Z,1006.08
2023-04-11T10:46:30.932Z,1006.06
2023-04-11T10:47:30.889Z,1006.17
2023-04-11T10:48:51.846Z,1006.12
2023-04-11T10:49:30.817Z,1006.10
2023-04-11T10:50:30.758Z,1006.12
2023-04-11T10:51:30.719Z,1006.20
2023-04-11T10:52:30.701Z,1006.15
2023-04-11T10:53:30.655Z,1006.17
2023-04-11T10:54:51.621Z,1006.31
2023-04-11T10:55:30.591Z,1006.06
2023-04-11T10:56:30.556Z,1006.05
2023-04-11T10:57:30.530Z,1006.14
2023-04-11T10:58:30.492Z,1006.15
2023-04-11T10:59:30.458Z,1006.20
2023-04-11T11:00:51.453Z,1006.19
2023-04-11T11:01:36.921Z,1006.16
2023-04-11T11:02:30.547Z,1006.17
2023-04-11T11:03:30.543Z,1006.15
2023-04-11T11:04:30.442Z,1006.06
2023-04-11T11:05:30.276Z,1006.16
2023-04-11T11:06:56.752Z,1006.38
2023-04-11T11:07:30.178Z,1006.14
2023-04-11T11:08:30.156Z,1006.23
2023-04-11T11:09:30.109Z,1006.19
2023-04-11T11:10:30.085Z,1006.25
2023-04-11T11:11:30.075Z,1006.32
2023-04-11T11:12:51.014Z,1006.30
2023-04-11T11:13:29.981Z,1006.28
2023-04-11T11:14:29.955Z,1006.21
2023-04-11T11:15:29.914Z,1006.18
2023-04-11T11:16:29.907Z,1006.18
2023-04-11T11:17:29.885Z,1006.38
2023-04-11T11:18:50.834Z,1006.21
2023-04-11T11:19:29.800Z,1006.27
2023-04-11T11:20:29.749Z,1006.17
2023-04-11T11:21:29.712Z,1006.26
2023-04-11T11:22:29.683Z,1006.32
2023-04-11T11:23:29.647Z,1006.25
2023-04-11T11:24:50.612Z,1006.27
2023-04-11T11:25:29.606Z,1006.32
2023-04-11T11:26:29.622Z,1006.33
2023-04-11T11:27:29.512Z,1006.28
2023-04-11T11:29:29.450Z,1006.21
2023-04-11T11:30:51.668Z,1006.20
2023-04-11T11:31:29.403Z,1006.25
2023-04-11T11:32:29.408Z,1006.28
2023-04-11T11:33:29.315Z,1006.20
2023-04-11T11:34:29.311Z,1006.13
2023-04-11T11:35:29.247Z,1006.18
2023-04-11T11:36:50.240Z,1006.22
2023-04-11T11:37:29.179Z,1006.25
2023-04-11T11:38:29.159Z,1006.25
2023-04-11T11:39:29.124Z,1006.24
2023-04-11T11:40:29.112Z,1006.22
2023-04-11T11:41:29.060Z,1006.25
2023-04-11T11:42:50.025Z,1006.25
2023-04-11T11:43:28.989Z,1006.24
2023-04-11T11:44:28.970Z,1006.23
2023-04-11T11:45:28.939Z,1006.33
2023-04-11T11:46:31.031Z,1006.26
2023-04-11T11:47:28.932Z,1006.33
2023-04-11T11:48:49.834Z,1006.12
2023-04-11T11:49:28.829Z,1006.31
2023-04-11T11:50:28.770Z,1006.27
2023-04-11T11:51:28.738Z,1006.34
2023-04-11T11:52:28.709Z,1006.30
2023-04-11T11:53:28.673Z,1006.24
2023-04-11T11:54:49.634Z,1006.25
2023-04-11T11:55:28.632Z,1006.27
2023-04-11T11:56:28.573Z,1006.33
2023-04-11T11:57:28.548Z,1006.36
2023-04-11T11:58:28.522Z,1006.31
2023-04-11T11:59:28.478Z,1006.37
2023-04-11T12:00:49.455Z,1006.36
2023-04-11T12:01:28.415Z,1006.28
2023-04-11T12:02:28.492Z,1006.29
2023-04-11T12:03:28.448Z,1006.31
2023-04-11T12:04:28.458Z,1006.20
2023-04-11T12:05:28.340Z,1006.26
2023-04-11T12:06:49.265Z,1006.36